createdAt,value
2019-04-29T00:02:25.503Z,9.68
2019-04-29T00:04:54.888Z,9.66
2019-04-29T00:07:24.274Z,10.00
2019-04-29T00:09:53.795Z,9.59
2019-04-29T00:12:23.272Z,9.44
2019-04-29T00:14:54.454Z,9.36
2019-04-29T00:17:34.291Z,9.44
2019-04-29T00:20:07.070Z,9.36
2019-04-29T00:22:36.443Z,9.23
2019-04-29T00:25:06.264Z,9.17
2019-04-29T00:27:35.648Z,9.46
2019-04-29T00:30:08.652Z,9.58
2019-04-29T00:32:38.166Z,9.62
2019-04-29T00:35:08.088Z,9.74
2019-04-29T00:37:55.793Z,9.50
2019-04-29T00:40:42.874Z,9.40
2019-04-29T00:43:26.001Z,9.76
2019-04-29T00:45:55.523Z,9.64
2019-04-29T00:48:24.889Z,9.68
2019-04-29T00:50:54.266Z,9.48
2019-04-29T00:53:23.728Z,9.10
2019-04-29T00:55:53.569Z,9.16
2019-04-29T00:58:22.951Z,9.14
2019-04-29T01:00:52.769Z,9.34
2019-04-29T01:03:22.153Z,9.04
2019-04-29T01:05:51.633Z,8.73
2019-04-29T01:08:21.176Z,9.01
2019-04-29T01:10:50.556Z,9.34
2019-04-29T01:13:20.003Z,9.08
2019-04-29T01:15:49.383Z,8.68
2019-04-29T01:18:18.765Z,8.73
2019-04-29T01:20:53.867Z,9.04
2019-04-29T01:23:23.243Z,9.41
2019-04-29T01:25:54.271Z,8.12
2019-04-29T01:28:27.960Z,8.12
2019-04-29T01:31:03.476Z,8.52
2019-04-29T01:33:32.919Z,8.39
2019-04-29T01:36:10.481Z,8.50
2019-04-29T01:38:39.891Z,8.52
2019-04-29T01:41:10.902Z,8.34
2019-04-29T01:43:59.015Z,8.97
2019-04-29T01:46:29.302Z,8.81
2019-04-29T01:48:58.755Z,8.34
2019-04-29T01:51:29.197Z,8.64
2019-04-29T01:53:58.658Z,8.56
2019-04-29T01:56:28.033Z,8.40
2019-04-29T01:58:57.413Z,8.62
2019-04-29T02:01:26.865Z,8.42
2019-04-29T02:03:57.381Z,8.57
2019-04-29T02:06:27.106Z,8.75
2019-04-29T02:08:57.097Z,8.64
2019-04-29T02:11:26.535Z,8.76
2019-04-29T02:13:55.916Z,8.48
2019-04-29T02:16:25.306Z,8.48
2019-04-29T02:18:54.693Z,8.21
2019-04-29T02:21:24.155Z,8.32
2019-04-29T02:23:55.172Z,8.85
2019-04-29T02:26:24.542Z,9.18
2019-04-29T02:28:53.930Z,9.16
2019-04-29T02:31:38.421Z,8.63
2019-04-29T02:34:08.589Z,8.48
2019-04-29T02:36:38.557Z,8.42
2019-04-29T02:39:29.093Z,8.32
2019-04-29T02:42:16.615Z,8.36
2019-04-29T02:44:46.229Z,8.50
2019-04-29T02:47:15.688Z,8.17
2019-04-29T02:49:45.062Z,7.91
2019-04-29T02:52:14.449Z,7.90
2019-04-29T02:54:44.475Z,8.06
2019-04-29T02:57:15.576Z,7.92
2019-04-29T02:59:46.586Z,7.86
2019-04-29T03:02:20.372Z,7.84
2019-04-29T03:04:51.391Z,8.00
2019-04-29T03:07:21.622Z,7.98
2019-04-29T03:09:51.275Z,7.94
2019-04-29T03:12:20.699Z,7.43
2019-04-29T03:14:50.091Z,7.54
2019-04-29T03:17:19.535Z,7.47
2019-04-29T03:20:08.790Z,7.69
2019-04-29T03:22:42.802Z,7.31
2019-04-29T03:25:13.496Z,7.25
2019-04-29T03:27:42.871Z,7.05
2019-04-29T03:30:12.702Z,7.55
2019-04-29T03:32:42.162Z,7.39
2019-04-29T03:35:11.672Z,7.49
2019-04-29T03:37:41.060Z,7.79
2019-04-29T03:40:10.582Z,7.82
2019-04-29T03:42:39.972Z,8.19
2019-04-29T03:45:09.590Z,7.90
2019-04-29T03:47:38.973Z,7.97
2019-04-29T03:50:09.457Z,7.84
2019-04-29T03:52:38.855Z,8.08
2019-04-29T03:55:08.464Z,7.93
2019-04-29T03:57:38.314Z,7.86
2019-04-29T04:00:11.214Z,8.19
2019-04-29T04:02:48.204Z,8.04
2019-04-29T04:05:32.222Z,8.17
2019-04-29T04:08:03.232Z,8.04
2019-04-29T04:10:32.632Z,7.84
2019-04-29T04:13:02.039Z,7.79
2019-04-29T04:15:32.426Z,7.71
2019-04-29T04:18:21.549Z,7.85
2019-04-29T04:20:51.664Z,7.91
2019-04-29T04:23:21.882Z,7.39
2019-04-29T04:25:52.146Z,7.59
2019-04-29T04:28:22.319Z,8.09
2019-04-29T04:30:52.524Z,7.91
2019-04-29T04:33:22.853Z,7.98
2019-04-29T04:35:53.113Z,8.14
2019-04-29T04:38:23.372Z,8.64
2019-04-29T04:40:58.392Z,8.63
2019-04-29T04:43:27.772Z,8.92
2019-04-29T04:45:57.311Z,8.80
2019-04-29T04:48:26.728Z,8.71
2019-04-29T04:50:56.091Z,8.66
2019-04-29T04:53:25.467Z,8.90
2019-04-29T04:55:56.736Z,9.02
2019-04-29T04:58:27.185Z,9.10
2019-04-29T05:00:57.709Z,8.95
2019-04-29T05:03:27.086Z,9.59
2019-04-29T05:05:56.550Z,9.06
2019-04-29T05:08:26.892Z,9.16
2019-04-29T05:10:56.721Z,9.22
2019-04-29T05:13:28.598Z,9.17
2019-04-29T05:15:58.150Z,8.87
2019-04-29T05:18:27.532Z,9.08
2019-04-29T05:20:57.683Z,9.29
2019-04-29T05:23:27.956Z,9.04
2019-04-29T05:25:58.136Z,9.54
2019-04-29T05:28:28.555Z,9.45
2019-04-29T05:30:58.849Z,9.71
2019-04-29T05:33:29.054Z,9.75
2019-04-29T05:36:03.945Z,9.99
2019-04-29T05:38:40.969Z,9.91
2019-04-29T05:41:10.352Z,9.63
2019-04-29T05:43:57.299Z,9.85
2019-04-29T05:46:28.303Z,9.89
2019-04-29T05:48:57.696Z,10.15
2019-04-29T05:51:31.368Z,10.41
2019-04-29T05:54:02.807Z,10.54
2019-04-29T05:56:32.268Z,10.29
2019-04-29T05:59:01.665Z,10.28
2019-04-29T06:01:31.915Z,10.62
2019-04-29T06:04:02.132Z,10.89
2019-04-29T06:06:32.412Z,11.16
2019-04-29T06:09:02.671Z,11.53
2019-04-29T06:11:33.071Z,11.24
2019-04-29T06:14:04.372Z,11.50
2019-04-29T06:16:33.961Z,11.28
2019-04-29T06:19:05.920Z,11.75
2019-04-29T06:21:34.813Z,12.14
2019-04-29T06:24:06.243Z,11.91
2019-04-29T06:26:35.451Z,11.95
2019-04-29T06:29:06.034Z,11.68
2019-04-29T06:31:35.578Z,12.25
2019-04-29T06:34:06.525Z,12.14
2019-04-29T06:36:36.989Z,12.51
2019-04-29T06:39:07.680Z,11.90
2019-04-29T06:41:40.650Z,12.91
2019-04-29T06:44:15.767Z,12.53
2019-04-29T06:46:39.262Z,12.95
2019-04-29T06:49:10.472Z,12.59
2019-04-29T06:51:39.717Z,13.26
2019-04-29T06:54:09.102Z,13.00
2019-04-29T06:56:38.480Z,13.39
2019-04-29T06:59:11.989Z,13.71
2019-04-29T07:01:38.944Z,13.93
2019-04-29T07:04:08.468Z,14.04
2019-04-29T07:06:38.863Z,12.83
2019-04-29T07:09:08.836Z,14.28
2019-04-29T07:11:39.174Z,14.44
2019-04-29T07:14:09.292Z,14.42
2019-04-29T07:16:39.622Z,14.66
2019-04-29T07:19:09.819Z,13.26
2019-04-29T07:21:41.926Z,14.29
2019-04-29T07:24:11.230Z,14.66
2019-04-29T07:26:40.618Z,14.98
2019-04-29T07:29:10.802Z,15.33
2019-04-29T07:31:41.130Z,14.71
2019-04-29T07:34:11.437Z,14.87
2019-04-29T07:36:41.665Z,15.34
2019-04-29T07:39:11.723Z,15.71
2019-04-29T07:41:42.128Z,15.50
2019-04-29T07:44:13.756Z,15.55
2019-04-29T07:46:56.347Z,15.05
2019-04-29T07:49:17.256Z,15.91
2019-04-29T07:51:47.233Z,15.39
2019-04-29T07:54:17.725Z,15.36
2019-04-29T07:56:47.176Z,15.69
2019-04-29T07:59:16.547Z,15.17
2019-04-29T08:01:45.935Z,15.10
2019-04-29T08:04:15.384Z,14.55
2019-04-29T08:06:45.615Z,14.81
2019-04-29T08:09:15.003Z,15.01
2019-04-29T08:11:45.768Z,15.09
2019-04-29T08:14:15.485Z,14.86
2019-04-29T08:16:45.751Z,14.69
2019-04-29T08:19:15.863Z,14.38
2019-04-29T08:21:49.725Z,14.58
2019-04-29T08:24:17.371Z,14.50
2019-04-29T08:26:47.619Z,15.04
2019-04-29T08:29:17.279Z,14.63
2019-04-29T08:31:47.236Z,14.86
2019-04-29T08:34:18.695Z,14.98
2019-04-29T08:36:48.543Z,14.92
2019-04-29T08:39:17.984Z,14.73
2019-04-29T08:41:48.495Z,14.66
2019-04-29T08:44:22.782Z,15.18
2019-04-29T08:46:54.003Z,15.67
2019-04-29T08:49:23.378Z,15.53
2019-04-29T08:51:52.766Z,15.12
2019-04-29T08:54:22.460Z,15.97
2019-04-29T08:57:02.741Z,14.61
2019-04-29T08:59:24.600Z,14.47
2019-04-29T09:01:54.568Z,15.56
2019-04-29T09:04:23.959Z,15.51
2019-04-29T09:06:53.416Z,14.58
2019-04-29T09:09:29.137Z,14.82
2019-04-29T09:11:53.903Z,14.83
2019-04-29T09:14:23.282Z,15.30
2019-04-29T09:16:53.808Z,14.57
2019-04-29T09:19:23.763Z,14.62
2019-04-29T09:21:58.309Z,15.60
2019-04-29T09:24:27.686Z,14.70
2019-04-29T09:26:58.801Z,15.28
2019-04-29T09:29:32.640Z,14.79
2019-04-29T09:32:03.242Z,14.96
2019-04-29T09:34:32.614Z,14.35
2019-04-29T09:37:02.163Z,14.24
2019-04-29T09:39:43.140Z,14.82
2019-04-29T09:42:22.054Z,15.08
2019-04-29T09:44:58.483Z,14.97
2019-04-29T09:47:28.155Z,15.40
2019-04-29T09:49:57.608Z,16.30
2019-04-29T09:52:27.069Z,15.36
2019-04-29T09:54:59.540Z,14.15
2019-04-29T09:57:27.195Z,14.13
2019-04-29T10:00:05.461Z,15.17
2019-04-29T10:02:35.495Z,15.67
2019-04-29T10:05:11.439Z,15.09
2019-04-29T10:07:41.893Z,14.69
2019-04-29T10:10:11.689Z,14.73
2019-04-29T10:12:41.075Z,15.33
2019-04-29T10:15:12.380Z,15.10
2019-04-29T10:17:50.070Z,15.13
2019-04-29T10:20:18.584Z,13.76
2019-04-29T10:22:50.217Z,14.67
2019-04-29T10:25:19.306Z,14.31
2019-04-29T10:27:48.688Z,14.32
2019-04-29T10:30:19.851Z,14.18
2019-04-29T10:32:49.248Z,14.05
2019-04-29T10:35:18.627Z,13.80
2019-04-29T10:37:48.189Z,12.92
2019-04-29T10:40:24.807Z,13.31
2019-04-29T10:43:02.445Z,13.29
2019-04-29T10:45:36.547Z,12.85
2019-04-29T10:48:23.968Z,13.39
2019-04-29T10:50:55.714Z,13.43
2019-04-29T10:53:25.272Z,12.51
2019-04-29T10:55:55.647Z,12.88
2019-04-29T10:58:30.286Z,13.39
2019-04-29T11:01:16.054Z,12.83
2019-04-29T11:03:45.507Z,12.83
2019-04-29T11:06:16.273Z,13.63
2019-04-29T11:08:50.162Z,13.85
2019-04-29T11:11:23.410Z,13.44
2019-04-29T11:13:51.059Z,12.97
2019-04-29T11:16:22.995Z,13.11
2019-04-29T11:18:55.058Z,13.58
2019-04-29T11:21:25.076Z,13.42
2019-04-29T11:23:56.563Z,14.03
2019-04-29T11:26:45.385Z,13.67
2019-04-29T11:29:14.819Z,13.58
2019-04-29T11:31:44.369Z,14.00
2019-04-29T11:34:17.789Z,13.21
2019-04-29T11:36:46.553Z,13.41
2019-04-29T11:39:16.225Z,12.81
2019-04-29T11:41:49.937Z,12.72
2019-04-29T11:44:21.984Z,13.49
2019-04-29T11:46:50.652Z,13.08
2019-04-29T11:49:21.763Z,13.63
2019-04-29T11:52:08.591Z,13.02
2019-04-29T11:54:22.409Z,12.57
2019-04-29T11:56:51.815Z,13.01
2019-04-29T11:59:40.366Z,13.13
2019-04-29T12:02:44.619Z,13.38
2019-04-29T12:05:08.663Z,13.77
2019-04-29T12:07:36.309Z,13.75
2019-04-29T12:10:07.938Z,13.37
2019-04-29T12:12:37.471Z,13.48
2019-04-29T12:15:21.837Z,13.39
2019-04-29T12:18:08.840Z,13.39
2019-04-29T12:20:39.860Z,13.94
2019-04-29T12:23:11.068Z,13.02
2019-04-29T12:25:40.911Z,13.16
2019-04-29T12:28:18.864Z,12.93
2019-04-29T12:30:44.214Z,13.40
2019-04-29T12:33:32.417Z,13.73
2019-04-29T12:36:06.514Z,14.30
2019-04-29T12:38:48.768Z,13.85
2019-04-29T12:41:21.153Z,13.44
2019-04-29T12:43:59.508Z,13.19
2019-04-29T12:46:48.542Z,13.95
2019-04-29T12:49:17.995Z,13.63
2019-04-29T12:51:47.463Z,14.69
2019-04-29T12:54:16.867Z,14.26
2019-04-29T12:56:47.708Z,13.62
2019-04-29T12:59:17.338Z,13.89
2019-04-29T13:01:57.719Z,13.61
2019-04-29T13:04:38.684Z,13.39
2019-04-29T13:07:13.375Z,13.39
2019-04-29T13:09:45.348Z,13.37
2019-04-29T13:12:19.425Z,14.09
2019-04-29T13:15:07.859Z,13.85
2019-04-29T13:17:42.221Z,14.01
2019-04-29T13:20:13.128Z,14.07
2019-04-29T13:22:43.615Z,13.85
2019-04-29T13:25:15.625Z,13.95
2019-04-29T13:27:44.519Z,13.87
2019-04-29T13:30:16.189Z,14.53
2019-04-29T13:32:45.428Z,15.28
2019-04-29T13:35:14.951Z,14.70
2019-04-29T13:37:44.330Z,14.08
2019-04-29T13:40:14.446Z,14.42
2019-04-29T13:42:48.592Z,14.29
2019-04-29T13:45:24.373Z,14.48
2019-04-29T13:47:56.806Z,14.74
2019-04-29T13:50:39.458Z,14.74
2019-04-29T13:53:02.068Z,14.47
2019-04-29T13:55:47.692Z,14.63
2019-04-29T13:58:02.511Z,14.74
2019-04-29T14:00:42.479Z,14.48
2019-04-29T14:03:13.516Z,14.54
2019-04-29T14:05:42.963Z,14.26
2019-04-29T14:08:12.364Z,14.62
2019-04-29T14:10:41.762Z,15.07
2019-04-29T14:13:16.321Z,14.43
2019-04-29T14:15:42.361Z,14.41
2019-04-29T14:18:12.131Z,14.81
2019-04-29T14:20:47.229Z,14.52
2019-04-29T14:23:14.228Z,15.22
2019-04-29T14:25:43.635Z,15.48
2019-04-29T14:28:13.069Z,14.89
2019-04-29T14:30:43.684Z,14.64
2019-04-29T14:33:13.601Z,15.00
2019-04-29T14:35:59.450Z,14.84
2019-04-29T14:38:27.769Z,15.20
2019-04-29T14:40:57.149Z,14.68
2019-04-29T14:43:43.559Z,15.41
2019-04-29T14:46:17.548Z,15.20
2019-04-29T14:48:51.544Z,14.70
2019-04-29T14:51:20.899Z,15.20
2019-04-29T14:53:56.768Z,15.46
2019-04-29T14:56:21.366Z,15.11
2019-04-29T14:58:50.798Z,15.03
2019-04-29T15:01:27.906Z,14.92
2019-04-29T15:03:58.934Z,15.06
2019-04-29T15:06:29.081Z,14.52
2019-04-29T15:08:58.835Z,14.27
2019-04-29T15:11:32.077Z,14.31
2019-04-29T15:14:23.741Z,14.60
2019-04-29T15:17:03.799Z,14.72
2019-04-29T15:19:48.705Z,14.69
2019-04-29T15:22:15.803Z,14.43
2019-04-29T15:24:45.103Z,14.52
2019-04-29T15:27:14.494Z,13.78
2019-04-29T15:29:43.880Z,14.27
2019-04-29T15:32:13.261Z,14.35
2019-04-29T15:34:44.019Z,14.57
2019-04-29T15:37:13.730Z,14.10
2019-04-29T15:39:46.073Z,14.19
2019-04-29T15:42:14.234Z,13.86
2019-04-29T15:44:43.607Z,13.56
2019-04-29T15:47:13.009Z,13.73
2019-04-29T15:49:42.383Z,13.80
2019-04-29T15:52:11.834Z,14.09
2019-04-29T15:54:41.292Z,13.80
2019-04-29T15:57:15.258Z,13.57
2019-04-29T15:59:49.063Z,13.37
2019-04-29T16:02:12.996Z,13.75
2019-04-29T16:05:04.488Z,13.36
2019-04-29T16:07:46.610Z,13.81
2019-04-29T16:10:21.888Z,13.12
2019-04-29T16:12:52.919Z,13.48
2019-04-29T16:15:22.316Z,13.06
2019-04-29T16:17:51.724Z,13.29
2019-04-29T16:20:21.112Z,13.06
2019-04-29T16:22:54.377Z,13.19
2019-04-29T16:25:21.833Z,13.25
2019-04-29T16:27:53.308Z,13.41
2019-04-29T16:30:25.920Z,13.21
2019-04-29T16:32:54.421Z,12.78
2019-04-29T16:35:26.012Z,13.10
2019-04-29T16:37:54.187Z,12.47
2019-04-29T16:40:25.235Z,12.96
2019-04-29T16:42:59.212Z,12.60
2019-04-29T16:45:44.151Z,12.78
2019-04-29T16:48:14.302Z,12.92
2019-04-29T16:50:43.757Z,13.13
2019-04-29T16:53:13.207Z,13.24
2019-04-29T16:55:44.295Z,12.64
2019-04-29T16:58:17.919Z,12.85
2019-04-29T17:00:46.743Z,13.10
2019-04-29T17:03:17.286Z,13.01
2019-04-29T17:05:46.687Z,13.01
2019-04-29T17:08:17.520Z,12.92
2019-04-29T17:10:49.058Z,12.78
2019-04-29T17:13:27.109Z,12.98
2019-04-29T17:15:56.762Z,12.58
2019-04-29T17:18:26.229Z,12.54
2019-04-29T17:21:04.588Z,12.99
2019-04-29T17:23:26.732Z,12.63
2019-04-29T17:25:56.271Z,12.67
2019-04-29T17:28:29.716Z,12.88
2019-04-29T17:31:01.340Z,12.50
2019-04-29T17:33:35.949Z,12.76
2019-04-29T17:36:07.225Z,12.30
2019-04-29T17:38:36.610Z,12.30
2019-04-29T17:41:06.083Z,11.95
2019-04-29T17:43:42.895Z,11.95
2019-04-29T17:46:28.864Z,12.23
2019-04-29T17:49:14.705Z,12.23
2019-04-29T17:51:45.966Z,12.24
2019-04-29T17:54:18.261Z,12.40
2019-04-29T17:56:49.413Z,12.73
2019-04-29T17:59:27.204Z,12.62
2019-04-29T18:02:07.609Z,11.98
2019-04-29T18:04:41.795Z,11.95
2019-04-29T18:07:12.861Z,11.79
2019-04-29T18:09:47.590Z,11.92
2019-04-29T18:12:18.635Z,12.60
2019-04-29T18:14:49.054Z,12.23
2019-04-29T18:17:27.134Z,12.31
2019-04-29T18:19:53.170Z,11.96
2019-04-29T18:22:42.457Z,11.85
2019-04-29T18:25:30.779Z,11.74
2019-04-29T18:27:59.903Z,11.92
2019-04-29T18:30:35.415Z,12.20
2019-04-29T18:32:57.850Z,11.83
2019-04-29T18:35:27.262Z,11.90
2019-04-29T18:37:56.639Z,12.36
2019-04-29T18:40:26.111Z,12.10
2019-04-29T18:42:55.541Z,11.78
2019-04-29T18:45:25.417Z,12.10
2019-04-29T18:47:56.047Z,11.69
2019-04-29T18:50:25.505Z,11.80
2019-04-29T18:52:56.051Z,12.04
2019-04-29T18:55:25.822Z,11.63
2019-04-29T18:57:58.417Z,11.36
2019-04-29T19:00:27.969Z,11.36
2019-04-29T19:03:00.849Z,11.61
2019-04-29T19:05:32.396Z,11.67
2019-04-29T19:08:12.180Z,11.57
2019-04-29T19:10:36.813Z,11.70
2019-04-29T19:13:12.391Z,11.71
2019-04-29T19:15:39.893Z,11.63
2019-04-29T19:18:07.929Z,11.58
2019-04-29T19:20:37.454Z,12.13
2019-04-29T19:23:10.051Z,12.04
2019-04-29T19:25:41.633Z,11.96
2019-04-29T19:28:14.319Z,11.55
2019-04-29T19:30:41.236Z,12.07
2019-04-29T19:33:10.689Z,11.87
2019-04-29T19:35:40.234Z,11.53
2019-04-29T19:38:12.472Z,11.40
2019-04-29T19:40:42.611Z,11.37
2019-04-29T19:43:17.186Z,12.39
2019-04-29T19:45:44.660Z,11.72
2019-04-29T19:48:16.068Z,12.57
2019-04-29T19:50:49.519Z,12.04
2019-04-29T19:53:16.706Z,11.95
2019-04-29T19:55:46.411Z,11.74
2019-04-29T19:58:16.231Z,11.64
2019-04-29T20:00:47.329Z,11.78
2019-04-29T20:03:23.948Z,11.94
2019-04-29T20:06:07.579Z,11.50
2019-04-29T20:08:46.232Z,11.95
2019-04-29T20:11:11.164Z,12.17
2019-04-29T20:13:31.300Z,11.71
2019-04-29T20:16:10.957Z,11.45
2019-04-29T20:18:40.311Z,11.45
2019-04-29T20:21:25.329Z,11.78
2019-04-29T20:23:53.233Z,11.76
2019-04-29T20:26:28.533Z,11.49
2019-04-29T20:28:55.506Z,11.50
2019-04-29T20:31:25.905Z,11.73
2019-04-29T20:33:56.070Z,11.49
2019-04-29T20:36:38.477Z,11.38
2019-04-29T20:38:57.980Z,11.68
2019-04-29T20:41:40.112Z,11.13
2019-04-29T20:44:00.762Z,10.96
2019-04-29T20:46:43.231Z,10.99
2019-04-29T20:49:01.482Z,11.34
2019-04-29T20:51:47.872Z,11.74
2019-04-29T20:54:15.998Z,11.55
2019-04-29T20:56:42.058Z,11.38
2019-04-29T20:59:13.024Z,11.26
2019-04-29T21:01:44.758Z,11.50
2019-04-29T21:04:29.752Z,11.51
2019-04-29T21:06:59.456Z,11.46
2019-04-29T21:09:16.765Z,11.31
2019-04-29T21:12:06.064Z,11.52
2019-04-29T21:14:38.319Z,11.55
2019-04-29T21:17:11.071Z,11.40
2019-04-29T21:19:39.764Z,11.28
2019-04-29T21:22:12.941Z,11.09
2019-04-29T21:24:40.449Z,11.32
2019-04-29T21:27:09.830Z,11.53
2019-04-29T21:29:39.427Z,11.25
2019-04-29T21:32:08.817Z,11.53
2019-04-29T21:34:39.844Z,11.22
2019-04-29T21:40:18.571Z,11.23
2019-04-29T21:42:47.428Z,11.60
2019-04-29T21:45:17.494Z,11.57
2019-04-29T21:47:52.935Z,11.75
2019-04-29T21:50:18.218Z,11.63
2019-04-29T21:52:47.609Z,11.40
2019-04-29T21:55:20.667Z,11.43
2019-04-29T22:00:50.479Z,11.19
2019-04-29T22:03:26.597Z,11.39
2019-04-29T22:05:53.588Z,11.54
2019-04-29T22:08:27.072Z,11.50
2019-04-29T22:11:12.864Z,11.32
2019-04-29T22:13:42.247Z,11.49
2019-04-29T22:16:15.821Z,11.29
2019-04-29T22:18:44.672Z,11.22
2019-04-29T22:21:21.770Z,11.58
2019-04-29T22:23:50.926Z,11.45
2019-04-29T22:26:23.061Z,11.48
2019-04-29T22:28:48.986Z,11.52
2019-04-29T22:31:19.411Z,11.60
2019-04-29T22:33:49.045Z,11.56
2019-04-29T22:36:19.571Z,11.23
2019-04-29T22:38:51.945Z,11.41
2019-04-29T22:41:21.694Z,11.01
2019-04-29T22:43:52.716Z,11.15
2019-04-29T22:46:22.270Z,11.39
2019-04-29T22:48:51.650Z,11.23
2019-04-29T22:51:21.040Z,11.40
2019-04-29T22:53:50.466Z,11.42
2019-04-29T22:56:19.849Z,11.63
2019-04-29T22:58:49.242Z,11.57
2019-04-29T23:01:18.635Z,11.58
2019-04-29T23:03:48.036Z,11.26
2019-04-29T23:06:17.424Z,11.22
2019-04-29T23:08:46.825Z,11.38
2019-04-29T23:11:16.216Z,11.43
2019-04-29T23:13:47.609Z,10.88
2019-04-29T23:16:16.955Z,11.44
2019-04-29T23:18:46.406Z,11.11
2019-04-29T23:21:37.344Z,10.74
2019-04-29T23:24:21.700Z,11.33
2019-04-29T23:26:51.097Z,11.62
2019-04-29T23:29:20.478Z,11.11
2019-04-29T23:31:49.870Z,11.14
2019-04-29T23:34:19.275Z,10.69
2019-04-29T23:36:50.055Z,11.10
2019-04-29T23:39:19.507Z,11.21
2019-04-29T23:41:48.879Z,11.24
2019-04-29T23:44:18.276Z,11.02
2019-04-29T23:46:47.686Z,11.28
2019-04-29T23:49:17.066Z,11.53
2019-04-29T23:51:46.600Z,11.57
2019-04-29T23:54:16.092Z,11.57
2019-04-29T23:56:53.101Z,11.60
